createdAt,value
2023-03-31T00:01:29.909Z,99105.89
2023-03-31T00:04:05.254Z,99104.19
2023-03-31T00:06:38.351Z,99105.26
2023-03-31T00:09:11.836Z,99100.92
2023-03-31T00:11:40.594Z,99101.89
2023-03-31T00:14:09.124Z,99096.86
2023-03-31T00:16:38.091Z,99095.41
2023-03-31T00:19:10.388Z,99099.80
2023-03-31T00:21:42.882Z,99098.09
2023-03-31T00:24:12.036Z,99097.77
2023-03-31T00:26:40.492Z,99097.88
2023-03-31T00:29:10.542Z,99093.91
2023-03-31T00:31:39.181Z,99086.63
2023-03-31T00:34:07.349Z,99089.13
2023-03-31T00:36:37.004Z,99084.96
2023-03-31T00:39:11.031Z,99079.07
2023-03-31T00:41:39.754Z,99075.74
2023-03-31T00:44:14.876Z,99067.45
2023-03-31T00:47:08.039Z,99065.09
2023-03-31T00:49:41.539Z,99062.73
2023-03-31T00:52:22.920Z,99063.49
2023-03-31T00:54:56.164Z,99057.88
2023-03-31T00:57:24.903Z,99058.99
2023-03-31T00:59:54.990Z,99059.21
2023-03-31T01:02:25.704Z,99059.44
2023-03-31T01:04:59.636Z,99053.10
2023-03-31T01:07:42.777Z,99053.38
2023-03-31T01:10:12.044Z,99049.45
2023-03-31T01:12:42.608Z,99045.87
2023-03-31T01:15:10.998Z,99047.27
2023-03-31T01:17:40.802Z,99042.77
2023-03-31T01:20:14.889Z,99035.95
2023-03-31T01:22:59.610Z,99034.29
2023-03-31T01:25:42.893Z,99029.68
2023-03-31T01:28:43.605Z,99028.40
2023-03-31T01:31:11.657Z,99026.89
2023-03-31T01:33:50.819Z,99025.65
2023-03-31T01:36:42.717Z,99019.92
2023-03-31T01:39:48.822Z,99017.52
2023-03-31T01:42:45.389Z,99013.22
2023-03-31T01:45:33.951Z,99005.66
2023-03-31T01:48:08.226Z,99009.27
2023-03-31T01:50:47.570Z,99010.16
2023-03-31T01:53:35.921Z,99005.46
2023-03-31T01:56:16.254Z,99004.70
2023-03-31T01:58:52.770Z,98999.09
2023-03-31T02:01:34.431Z,98998.98
2023-03-31T02:04:16.289Z,98997.54
2023-03-31T02:06:47.506Z,98994.48
2023-03-31T02:09:17.750Z,98989.02
2023-03-31T02:11:45.956Z,98977.61
2023-03-31T02:14:21.985Z,98974.14
2023-03-31T02:16:52.148Z,98970.48
2023-03-31T02:19:20.170Z,98969.59
2023-03-31T02:21:52.619Z,98961.66
2023-03-31T02:24:22.178Z,98960.27
2023-03-31T02:26:56.545Z,98958.12
2023-03-31T02:29:24.863Z,98960.54
2023-03-31T02:31:58.825Z,98962.04
2023-03-31T02:34:28.205Z,98952.45
2023-03-31T02:36:56.897Z,98940.14
2023-03-31T02:39:36.062Z,98932.58
2023-03-31T02:42:07.609Z,98933.91
2023-03-31T02:44:37.375Z,98936.75
2023-03-31T02:47:13.101Z,98935.09
2023-03-31T02:49:44.128Z,98934.00
2023-03-31T02:52:43.549Z,98938.02
2023-03-31T02:56:06.930Z,98930.09
2023-03-31T02:58:54.991Z,98930.95
2023-03-31T03:01:54.485Z,98931.96
2023-03-31T03:04:39.528Z,98931.22
2023-03-31T03:07:13.728Z,98934.33
2023-03-31T03:09:43.040Z,98930.95
2023-03-31T03:12:13.123Z,98927.48
2023-03-31T03:14:44.672Z,98924.42
2023-03-31T03:17:20.348Z,98920.52
2023-03-31T03:19:53.485Z,98930.95
2023-03-31T03:22:22.217Z,98931.59
2023-03-31T03:24:50.980Z,98928.97
2023-03-31T03:27:19.991Z,98933.95
2023-03-31T03:29:49.025Z,98926.99
2023-03-31T03:32:17.123Z,98926.13
2023-03-31T03:34:45.462Z,98924.59
2023-03-31T03:37:13.484Z,98924.54
2023-03-31T03:39:41.934Z,98921.54
2023-03-31T03:42:09.932Z,98913.78
2023-03-31T03:44:39.678Z,98909.77
2023-03-31T03:47:07.713Z,98909.17
2023-03-31T03:49:36.826Z,98910.45
2023-03-31T03:52:05.588Z,98908.33
2023-03-31T03:54:33.870Z,98903.07
2023-03-31T03:57:02.525Z,98905.70
2023-03-31T03:59:30.819Z,98906.08
2023-03-31T04:02:03.469Z,98897.50
2023-03-31T04:04:32.380Z,98895.63
2023-03-31T04:07:00.907Z,98895.37
2023-03-31T04:09:29.258Z,98896.44
2023-03-31T04:11:58.878Z,98893.88
2023-03-31T04:14:27.393Z,98890.71
2023-03-31T04:17:00.732Z,98888.36
2023-03-31T04:19:28.765Z,98891.04
2023-03-31T04:22:03.155Z,98891.48
2023-03-31T04:24:33.421Z,98887.98
2023-03-31T04:27:03.339Z,98893.83
2023-03-31T04:29:37.377Z,98889.91
2023-03-31T04:32:06.578Z,98879.69
2023-03-31T04:34:37.478Z,98876.64
2023-03-31T04:37:10.777Z,98877.65
2023-03-31T04:39:39.190Z,98879.16
2023-03-31T04:42:07.115Z,98879.48
2023-03-31T04:44:35.475Z,98878.89
2023-03-31T04:47:03.973Z,98875.67
2023-03-31T04:49:36.025Z,98868.23
2023-03-31T04:52:04.171Z,98862.03
2023-03-31T04:54:37.945Z,98861.11
2023-03-31T04:57:06.666Z,98859.52
2023-03-31T04:59:34.752Z,98857.58
2023-03-31T05:02:04.558Z,98849.87
2023-03-31T05:04:33.111Z,98846.65
2023-03-31T05:07:01.461Z,98836.86
2023-03-31T05:09:29.735Z,98841.73
2023-03-31T05:12:00.750Z,98840.88
2023-03-31T05:14:32.007Z,98839.85
2023-03-31T05:17:00.079Z,98845.52
2023-03-31T05:19:29.161Z,98841.61
2023-03-31T05:21:57.398Z,98838.06
2023-03-31T05:24:26.053Z,98832.92
2023-03-31T05:26:54.880Z,98827.63
2023-03-31T05:29:24.175Z,98825.84
2023-03-31T05:31:54.069Z,98817.81
2023-03-31T05:34:22.232Z,98812.78
2023-03-31T05:36:53.638Z,98814.66
2023-03-31T05:39:22.154Z,98809.17
2023-03-31T05:41:51.114Z,98797.23
2023-03-31T05:44:20.910Z,98789.12
2023-03-31T05:46:49.297Z,98786.97
2023-03-31T05:49:17.570Z,98783.56
2023-03-31T05:51:47.006Z,98777.42
2023-03-31T05:54:15.038Z,98773.91
2023-03-31T05:56:44.025Z,98769.70
2023-03-31T05:59:15.002Z,98766.48
2023-03-31T06:01:47.748Z,98767.44
2023-03-31T06:04:16.421Z,98764.87
2023-03-31T06:06:46.219Z,98766.55
2023-03-31T06:09:17.736Z,98764.90
2023-03-31T06:11:47.589Z,98760.80
2023-03-31T06:14:16.973Z,98758.16
2023-03-31T06:16:45.001Z,98756.63
2023-03-31T06:19:13.261Z,98755.86
2023-03-31T06:21:41.546Z,98754.42
2023-03-31T06:24:13.116Z,98759.48
2023-03-31T06:26:41.688Z,98773.09
2023-03-31T06:29:14.449Z,98775.84
2023-03-31T06:31:42.905Z,98771.79
2023-03-31T06:34:11.331Z,98765.39
2023-03-31T06:36:39.578Z,98762.33
2023-03-31T06:39:07.687Z,98756.55
2023-03-31T06:41:37.508Z,98754.95
2023-03-31T06:44:06.184Z,98754.25
2023-03-31T06:46:36.019Z,98750.71
2023-03-31T06:49:04.447Z,98751.72
2023-03-31T06:51:34.296Z,98748.06
2023-03-31T06:54:11.943Z,98741.20
2023-03-31T06:56:40.892Z,98736.44
2023-03-31T06:59:09.272Z,98736.83
2023-03-31T07:01:39.295Z,98732.00
2023-03-31T07:04:12.652Z,98732.59
2023-03-31T07:06:41.529Z,98730.52
2023-03-31T07:09:09.597Z,98728.92
2023-03-31T07:11:41.529Z,98727.80
2023-03-31T07:14:10.408Z,98721.55
2023-03-31T07:16:39.069Z,98716.78
2023-03-31T07:19:11.379Z,98711.13
2023-03-31T07:21:40.239Z,98712.38
2023-03-31T07:24:08.336Z,98710.77
2023-03-31T07:26:36.427Z,98710.48
2023-03-31T07:29:04.948Z,98709.99
2023-03-31T07:31:37.970Z,98709.33
2023-03-31T07:34:06.322Z,98710.13
2023-03-31T07:36:34.772Z,98710.81
2023-03-31T07:39:04.634Z,98709.91
2023-03-31T07:41:33.137Z,98711.44
2023-03-31T07:44:03.284Z,98705.95
2023-03-31T07:46:31.542Z,98708.42
2023-03-31T07:49:03.272Z,98701.94
2023-03-31T07:51:34.403Z,98699.61
2023-03-31T07:54:03.210Z,98696.61
2023-03-31T07:56:33.375Z,98697.36
2023-03-31T07:59:01.933Z,98697.92
2023-03-31T08:01:30.391Z,98696.07
2023-03-31T08:03:59.473Z,98690.67
2023-03-31T08:06:29.208Z,98687.73
2023-03-31T08:08:58.041Z,98684.36
2023-03-31T08:11:26.425Z,98681.21
2023-03-31T08:13:55.651Z,98679.96
2023-03-31T08:16:24.145Z,98676.11
2023-03-31T08:18:54.388Z,98673.44
2023-03-31T08:21:24.416Z,98676.59
2023-03-31T08:23:56.050Z,98672.27
2023-03-31T08:26:27.415Z,98666.89
2023-03-31T08:28:55.693Z,98664.93
2023-03-31T08:31:26.710Z,98662.48
2023-03-31T08:33:55.787Z,98659.78
2023-03-31T08:36:23.894Z,98661.67
2023-03-31T08:38:52.181Z,98660.28
2023-03-31T08:41:35.473Z,98655.75
2023-03-31T08:44:07.521Z,98648.67
2023-03-31T08:46:35.916Z,98647.61
2023-03-31T08:49:04.260Z,98647.63
2023-03-31T08:51:36.674Z,98647.95
2023-03-31T08:54:15.004Z,98637.61
2023-03-31T08:56:46.064Z,98637.08
2023-03-31T08:59:31.677Z,98635.95
2023-03-31T09:02:39.205Z,98633.74
2023-03-31T09:05:20.091Z,98628.53
2023-03-31T09:07:55.690Z,98625.97
2023-03-31T09:10:58.647Z,98623.27
2023-03-31T09:13:58.297Z,98625.42
2023-03-31T09:16:39.067Z,98620.06
2023-03-31T09:19:15.242Z,98622.63
2023-03-31T09:21:44.863Z,98618.02
2023-03-31T09:24:44.277Z,98611.17
2023-03-31T09:27:12.367Z,98601.52
2023-03-31T09:29:48.141Z,98596.50
2023-03-31T09:32:22.739Z,98590.38
2023-03-31T09:34:57.707Z,98582.29
2023-03-31T09:37:27.624Z,98577.73
2023-03-31T09:40:07.548Z,98578.94
2023-03-31T09:42:36.716Z,98579.13
2023-03-31T09:45:05.189Z,98581.09
2023-03-31T09:47:43.020Z,98583.19
2023-03-31T09:50:11.582Z,98580.07
2023-03-31T09:52:44.608Z,98574.61
2023-03-31T09:55:36.479Z,98575.15
2023-03-31T09:58:08.258Z,98574.35
2023-03-31T10:00:37.947Z,98573.52
2023-03-31T10:03:09.281Z,98571.86
2023-03-31T10:05:41.196Z,98571.94
2023-03-31T10:08:24.355Z,98569.83
2023-03-31T10:11:03.190Z,98571.65
2023-03-31T10:13:40.118Z,98569.39
2023-03-31T10:16:12.866Z,98567.02
2023-03-31T10:18:43.162Z,98562.54
2023-03-31T10:21:24.684Z,98556.61
2023-03-31T10:23:54.314Z,98552.59
2023-03-31T10:26:24.266Z,98550.22
2023-03-31T10:28:52.842Z,98547.36
2023-03-31T10:31:26.201Z,98547.16
2023-03-31T10:33:54.419Z,98545.96
2023-03-31T10:36:24.749Z,98542.34
2023-03-31T10:38:52.723Z,98539.99
2023-03-31T10:41:24.016Z,98537.48
2023-03-31T10:43:52.806Z,98530.75
2023-03-31T10:46:21.200Z,98526.92
2023-03-31T10:48:49.344Z,98531.13
2023-03-31T10:51:20.256Z,98529.66
2023-03-31T10:53:56.491Z,98527.14
2023-03-31T10:56:35.451Z,98523.73
2023-03-31T10:59:24.968Z,98523.25
2023-03-31T11:02:31.741Z,98514.70
2023-03-31T11:05:15.499Z,98514.45
2023-03-31T11:07:48.867Z,98511.79
2023-03-31T11:10:32.549Z,98508.33
2023-03-31T11:13:27.072Z,98509.21
2023-03-31T11:16:06.058Z,98504.60
2023-03-31T11:18:46.186Z,98499.67
2023-03-31T11:21:28.476Z,98496.61
2023-03-31T11:23:57.848Z,98492.48
2023-03-31T11:26:48.977Z,98487.39
2023-03-31T11:29:20.321Z,98486.50
2023-03-31T11:31:59.262Z,98479.23
2023-03-31T11:34:55.144Z,98475.88
2023-03-31T11:38:02.707Z,98474.20
2023-03-31T11:40:58.015Z,98470.02
2023-03-31T11:43:47.364Z,98467.79
2023-03-31T11:46:19.559Z,98474.16
2023-03-31T11:48:59.255Z,98473.16
2023-03-31T11:51:52.766Z,98464.31
2023-03-31T11:54:25.502Z,98460.23
2023-03-31T11:56:53.812Z,98453.34
2023-03-31T11:59:22.554Z,98450.80
2023-03-31T12:01:57.977Z,98448.53
2023-03-31T12:04:38.022Z,98441.07
2023-03-31T12:07:33.402Z,98438.34
2023-03-31T12:10:21.323Z,98434.17
2023-03-31T12:13:34.049Z,98426.80
2023-03-31T12:16:04.916Z,98417.88
2023-03-31T12:18:37.115Z,98422.22
2023-03-31T12:21:06.480Z,98416.51
2023-03-31T12:23:39.564Z,98421.56
2023-03-31T12:26:29.527Z,98421.20
2023-03-31T12:29:03.568Z,98418.16
2023-03-31T12:31:33.264Z,98415.12
2023-03-31T12:34:03.232Z,98412.13
2023-03-31T12:36:49.115Z,98410.05
2023-03-31T12:39:27.566Z,98405.85
2023-03-31T12:42:15.673Z,98402.65
2023-03-31T12:44:57.182Z,98401.43
2023-03-31T12:47:33.829Z,98399.83
2023-03-31T12:50:24.006Z,98399.77
2023-03-31T12:53:31.383Z,98405.16
2023-03-31T12:55:59.742Z,98395.05
2023-03-31T12:58:32.377Z,98393.63
2023-03-31T13:01:01.754Z,98392.62
2023-03-31T13:03:46.325Z,98391.45
2023-03-31T13:06:29.736Z,98387.09
2023-03-31T13:08:58.944Z,98380.99
2023-03-31T13:11:31.355Z,98373.75
2023-03-31T13:14:01.904Z,98370.65
2023-03-31T13:16:31.368Z,98371.02
2023-03-31T13:18:59.465Z,98369.73
2023-03-31T13:21:27.791Z,98367.60
2023-03-31T13:24:00.664Z,98362.98
2023-03-31T13:26:46.804Z,98362.91
2023-03-31T13:29:29.130Z,98361.84
2023-03-31T13:32:03.665Z,98362.10
2023-03-31T13:34:36.318Z,98357.21
2023-03-31T13:37:22.996Z,98353.33
2023-03-31T13:40:08.451Z,98357.77
2023-03-31T13:42:46.309Z,98352.04
2023-03-31T13:45:17.193Z,98349.19
2023-03-31T13:47:56.682Z,98348.42
2023-03-31T13:51:02.814Z,98345.64
2023-03-31T13:53:40.517Z,98343.46
2023-03-31T13:56:46.279Z,98346.19
2023-03-31T13:59:23.358Z,98347.49
2023-03-31T14:02:20.822Z,98347.84
2023-03-31T14:05:07.690Z,98345.55
2023-03-31T14:07:49.882Z,98346.60
2023-03-31T14:10:30.306Z,98352.90
2023-03-31T14:13:13.130Z,98346.58
2023-03-31T14:15:49.364Z,98342.69
2023-03-31T14:18:31.048Z,98341.67
2023-03-31T14:21:03.440Z,98343.63
2023-03-31T14:23:47.169Z,98344.89
2023-03-31T14:26:28.644Z,98342.27
2023-03-31T14:29:03.755Z,98350.13
2023-03-31T14:31:38.160Z,98342.43
2023-03-31T14:34:37.515Z,98339.05
2023-03-31T14:37:08.386Z,98343.69
2023-03-31T14:39:45.506Z,98344.95
2023-03-31T14:42:15.469Z,98343.03
2023-03-31T14:44:47.798Z,98343.08
2023-03-31T14:47:25.121Z,98342.83
2023-03-31T14:50:13.666Z,98338.48
2023-03-31T14:52:47.478Z,98339.65
2023-03-31T14:55:16.677Z,98332.77
2023-03-31T14:57:46.388Z,98336.38
2023-03-31T15:00:15.951Z,98334.86
2023-03-31T15:02:46.407Z,98336.54
2023-03-31T15:05:28.096Z,98339.13
2023-03-31T15:08:00.250Z,98338.82
2023-03-31T15:10:33.644Z,98341.33
2023-03-31T15:13:07.451Z,98342.02
2023-03-31T15:15:36.837Z,98344.98
2023-03-31T15:18:05.805Z,98344.89
2023-03-31T15:20:38.168Z,98348.42
2023-03-31T15:23:25.989Z,98345.82
2023-03-31T15:25:59.214Z,98356.27
2023-03-31T15:28:29.694Z,98359.14
2023-03-31T15:31:09.646Z,98357.46
2023-03-31T15:33:46.293Z,98352.88
2023-03-31T15:36:14.423Z,98356.67
2023-03-31T15:38:43.135Z,98360.11
2023-03-31T15:41:16.804Z,98362.06
2023-03-31T15:43:52.970Z,98362.79
2023-03-31T15:46:51.422Z,98362.89
2023-03-31T15:49:24.394Z,98365.48
2023-03-31T15:51:53.387Z,98363.48
2023-03-31T15:54:36.324Z,98365.55
2023-03-31T15:57:06.073Z,98364.61
2023-03-31T16:02:43.112Z,98363.68
2023-03-31T16:05:43.724Z,98360.98
2023-03-31T16:08:38.235Z,98361.88
2023-03-31T16:11:20.404Z,98358.34
2023-03-31T16:13:53.812Z,98357.04
2023-03-31T16:16:23.544Z,98357.84
2023-03-31T16:18:54.511Z,98356.27
2023-03-31T16:21:26.737Z,98352.18
2023-03-31T16:23:57.039Z,98353.89
2023-03-31T16:26:28.575Z,98352.34
2023-03-31T16:28:57.770Z,98357.16
2023-03-31T16:31:36.925Z,98351.44
2023-03-31T16:34:06.834Z,98356.91
2023-03-31T16:36:35.570Z,98354.29
2023-03-31T16:39:05.396Z,98351.18
2023-03-31T16:41:34.554Z,98353.52
2023-03-31T16:44:02.868Z,98356.23
2023-03-31T16:46:31.456Z,98360.82
2023-03-31T16:48:59.964Z,98355.31
2023-03-31T16:51:28.506Z,98355.34
2023-03-31T16:56:48.086Z,98351.00
2023-03-31T16:59:16.476Z,98355.07
2023-03-31T17:01:45.865Z,98355.91
2023-03-31T17:04:14.552Z,98352.02
2023-03-31T17:06:42.577Z,98351.30
2023-03-31T17:09:11.372Z,98353.41
2023-03-31T17:11:41.426Z,98356.12
2023-03-31T17:14:11.126Z,98356.34
2023-03-31T17:16:48.036Z,98360.52
2023-03-31T17:19:17.468Z,98354.45
2023-03-31T17:21:46.001Z,98355.11
2023-03-31T17:24:14.754Z,98356.06
2023-03-31T17:26:43.455Z,98357.58
2023-03-31T17:29:15.475Z,98355.31
2023-03-31T17:31:45.569Z,98350.31
2023-03-31T17:34:14.109Z,98353.98
2023-03-31T17:36:44.463Z,98357.10
2023-03-31T17:39:13.478Z,98358.54
2023-03-31T17:41:41.982Z,98357.35
2023-03-31T17:44:10.997Z,98354.78
2023-03-31T17:46:39.481Z,98352.93
2023-03-31T17:49:08.392Z,98350.11
2023-03-31T17:51:36.712Z,98348.48
2023-03-31T17:54:05.862Z,98355.27
2023-03-31T17:56:34.738Z,98353.91
2023-03-31T17:59:03.663Z,98355.55
2023-03-31T18:01:32.719Z,98360.15
2023-03-31T18:04:00.851Z,98363.14
2023-03-31T18:06:28.896Z,98367.17
2023-03-31T18:08:57.170Z,98367.61
2023-03-31T18:11:26.060Z,98369.46
2023-03-31T18:14:02.136Z,98371.70
2023-03-31T18:16:31.510Z,98371.39
2023-03-31T18:18:59.876Z,98369.88
2023-03-31T18:21:35.136Z,98368.96
2023-03-31T18:24:03.976Z,98371.48
2023-03-31T18:26:32.417Z,98370.20
2023-03-31T18:29:04.853Z,98365.02
2023-03-31T18:31:42.719Z,98367.08
2023-03-31T18:34:13.735Z,98366.64
2023-03-31T18:36:43.641Z,98370.21
2023-03-31T18:39:12.338Z,98369.02
2023-03-31T18:41:45.815Z,98368.80
2023-03-31T18:44:16.900Z,98369.27
2023-03-31T18:46:45.809Z,98371.71
2023-03-31T18:49:15.484Z,98370.98
2023-03-31T18:51:43.669Z,98370.42
2023-03-31T18:54:12.190Z,98369.77
2023-03-31T18:56:41.465Z,98369.64
2023-03-31T18:59:11.027Z,98373.36
2023-03-31T19:01:40.503Z,98376.83
2023-03-31T19:04:09.576Z,98377.23
2023-03-31T19:06:37.725Z,98377.72
2023-03-31T19:09:06.573Z,98371.23
2023-03-31T19:11:34.645Z,98369.77
2023-03-31T19:14:02.942Z,98372.27
2023-03-31T19:16:51.129Z,98367.46
2023-03-31T19:19:20.168Z,98369.63
2023-03-31T19:21:49.583Z,98371.24
2023-03-31T19:24:20.989Z,98375.15
2023-03-31T19:26:56.911Z,98370.44
2023-03-31T19:29:27.560Z,98371.24
2023-03-31T19:32:01.783Z,98364.92
2023-03-31T19:34:30.545Z,98371.27
2023-03-31T19:36:59.004Z,98367.98
2023-03-31T19:39:29.675Z,98368.01
2023-03-31T19:41:57.733Z,98365.63
2023-03-31T19:44:25.815Z,98361.07
2023-03-31T19:46:54.334Z,98354.69
2023-03-31T19:49:26.910Z,98352.39
2023-03-31T19:51:56.778Z,98344.58
2023-03-31T19:54:25.042Z,98345.34
2023-03-31T19:56:53.270Z,98350.42
2023-03-31T19:59:22.114Z,98346.30
2023-03-31T20:01:50.616Z,98352.80
2023-03-31T20:04:21.232Z,98353.85
2023-03-31T20:06:49.713Z,98350.48
2023-03-31T20:09:17.897Z,98351.23
2023-03-31T20:11:48.396Z,98351.66
2023-03-31T20:14:18.139Z,98347.44
2023-03-31T20:16:53.058Z,98352.17
2023-03-31T20:19:23.375Z,98349.17
2023-03-31T20:21:54.434Z,98347.89
2023-03-31T20:24:23.334Z,98350.46
2023-03-31T20:26:52.029Z,98349.60
2023-03-31T20:29:20.184Z,98349.54
2023-03-31T20:31:50.480Z,98353.42
2023-03-31T20:34:18.993Z,98345.46
2023-03-31T20:36:49.364Z,98345.36
2023-03-31T20:39:18.578Z,98343.84
2023-03-31T20:41:47.507Z,98346.85
2023-03-31T20:44:16.086Z,98340.64
2023-03-31T20:46:44.717Z,98344.05
2023-03-31T20:49:13.377Z,98344.34
2023-03-31T20:51:42.812Z,98350.48
2023-03-31T20:54:12.144Z,98351.00
2023-03-31T20:56:40.775Z,98357.10
2023-03-31T20:59:11.743Z,98357.63
2023-03-31T21:01:40.045Z,98362.14
2023-03-31T21:04:11.160Z,98366.20
2023-03-31T21:06:43.651Z,98370.70
2023-03-31T21:09:12.893Z,98373.34
2023-03-31T21:11:44.387Z,98377.41
2023-03-31T21:14:14.284Z,98372.44
2023-03-31T21:16:42.893Z,98368.02
2023-03-31T21:19:11.767Z,98364.84
2023-03-31T21:21:41.547Z,98362.39
2023-03-31T21:24:11.469Z,98363.79
2023-03-31T21:26:40.863Z,98358.94
2023-03-31T21:29:11.933Z,98351.65
2023-03-31T21:31:42.140Z,98350.86
2023-03-31T21:34:11.824Z,98343.90
2023-03-31T21:36:40.191Z,98342.42
2023-03-31T21:39:09.884Z,98338.99
2023-03-31T21:41:39.981Z,98337.69
2023-03-31T21:44:09.149Z,98331.12
2023-03-31T21:46:37.776Z,98334.59
2023-03-31T21:49:06.502Z,98335.27
2023-03-31T21:51:34.579Z,98336.61
2023-03-31T21:54:03.118Z,98334.30
2023-03-31T21:56:31.959Z,98339.73
2023-03-31T21:59:04.380Z,98344.02
2023-03-31T22:01:32.721Z,98343.20
2023-03-31T22:04:01.667Z,98343.17
2023-03-31T22:06:30.795Z,98345.46
2023-03-31T22:08:58.928Z,98352.80
2023-03-31T22:11:28.763Z,98352.66
2023-03-31T22:13:58.088Z,98349.66
2023-03-31T22:16:26.825Z,98353.17
2023-03-31T22:18:55.957Z,98348.70
2023-03-31T22:21:41.130Z,98342.49
2023-03-31T22:24:10.939Z,98337.83
2023-03-31T22:26:39.174Z,98338.23
2023-03-31T22:29:14.314Z,98340.73
2023-03-31T22:31:44.037Z,98345.90
2023-03-31T22:34:13.047Z,98348.13
2023-03-31T22:36:41.256Z,98349.49
2023-03-31T22:39:10.425Z,98352.35
2023-03-31T22:41:38.472Z,98353.77
2023-03-31T22:44:07.189Z,98355.98
2023-03-31T22:46:36.341Z,98358.52
2023-03-31T22:49:04.636Z,98357.13
2023-03-31T22:51:34.746Z,98355.75
2023-03-31T22:54:03.086Z,98362.59
2023-03-31T22:56:32.099Z,98363.35
2023-03-31T22:59:00.653Z,98357.16
2023-03-31T23:01:29.096Z,98355.82
2023-03-31T23:03:57.413Z,98347.98
2023-03-31T23:06:25.874Z,98343.37
2023-03-31T23:08:54.216Z,98348.43
2023-03-31T23:11:23.095Z,98348.77
2023-03-31T23:13:52.557Z,98352.30
2023-03-31T23:16:22.537Z,98356.44
2023-03-31T23:18:51.928Z,98359.40
2023-03-31T23:21:27.931Z,98357.10
2023-03-31T23:23:57.444Z,98358.95
2023-03-31T23:26:30.439Z,98357.86
2023-03-31T23:28:58.921Z,98362.42
2023-03-31T23:31:28.954Z,98361.46
2023-03-31T23:33:57.866Z,98362.94
2023-03-31T23:36:26.882Z,98358.11
2023-03-31T23:38:59.337Z,98361.15
2023-03-31T23:41:27.479Z,98361.39
2023-03-31T23:43:57.880Z,98361.88
2023-03-31T23:46:26.906Z,98362.10
2023-03-31T23:48:55.901Z,98359.52
2023-03-31T23:51:24.316Z,98361.58
2023-03-31T23:53:52.975Z,98369.54
2023-03-31T23:56:25.601Z,98367.39
2023-03-31T23:58:53.714Z,98353.93
